createdAt,value
2023-01-12T00:02:20.236Z,29.20
2023-01-12T00:04:48.246Z,48.00
2023-01-12T00:07:17.833Z,22.20
2023-01-12T00:09:45.790Z,29.50
2023-01-12T00:12:13.840Z,17.10
2023-01-12T00:14:42.023Z,31.00
2023-01-12T00:17:12.104Z,20.20
2023-01-12T00:19:40.550Z,24.10
2023-01-12T00:22:11.843Z,20.50
2023-01-12T00:24:43.976Z,34.80
2023-01-12T00:27:22.019Z,29.40
2023-01-12T00:29:50.466Z,49.30
2023-01-12T00:32:20.277Z,41.30
2023-01-12T00:34:48.572Z,32.30
2023-01-12T00:37:16.581Z,28.10
2023-01-12T00:39:53.179Z,45.20
2023-01-12T00:42:43.676Z,28.60
2023-01-12T00:45:24.125Z,36.70
2023-01-12T00:47:53.627Z,19.90
2023-01-12T00:50:22.151Z,24.40
2023-01-12T00:52:50.029Z,17.00
2023-01-12T00:55:18.004Z,47.00
2023-01-12T00:57:45.870Z,29.30
2023-01-12T01:00:14.724Z,41.80
2023-01-12T01:02:42.716Z,82.30
2023-01-12T01:05:10.655Z,39.80
2023-01-12T01:07:38.653Z,31.10
2023-01-12T01:10:07.714Z,22.80
2023-01-12T01:12:35.620Z,22.60
2023-01-12T01:15:03.741Z,14.50
2023-01-12T01:17:31.744Z,14.90
2023-01-12T01:19:59.594Z,13.60
2023-01-12T01:22:27.758Z,17.50
2023-01-12T01:24:55.651Z,12.20
2023-01-12T01:27:23.474Z,12.10
2023-01-12T01:29:51.255Z,12.80
2023-01-12T01:32:19.651Z,14.10
2023-01-12T01:34:48.303Z,25.70
2023-01-12T01:37:16.912Z,57.00
2023-01-12T01:39:44.851Z,22.20
2023-01-12T01:42:28.685Z,17.60
2023-01-12T01:44:59.646Z,32.10
2023-01-12T01:47:36.610Z,18.30
2023-01-12T01:50:12.111Z,17.20
2023-01-12T01:52:44.613Z,23.80
2023-01-12T01:55:19.988Z,64.60
2023-01-12T01:57:55.117Z,37.00
2023-01-12T02:00:25.024Z,38.20
2023-01-12T02:02:55.016Z,22.50
2023-01-12T02:05:27.236Z,81.50
2023-01-12T02:07:58.877Z,35.40
2023-01-12T02:10:26.975Z,76.20
2023-01-12T02:13:13.406Z,56.90
2023-01-12T02:16:25.596Z,47.80
2023-01-12T02:19:02.531Z,76.90
2023-01-12T02:21:36.519Z,46.00
2023-01-12T02:24:26.023Z,45.20
2023-01-12T02:27:06.739Z,24.70
2023-01-12T02:29:56.470Z,46.10
2023-01-12T02:32:42.624Z,55.90
2023-01-12T02:35:35.030Z,70.30
2023-01-12T02:38:21.085Z,40.10
2023-01-12T02:41:03.168Z,47.10
2023-01-12T02:43:35.379Z,43.70
2023-01-12T02:46:32.256Z,35.30
2023-01-12T02:49:06.967Z,76.90
2023-01-12T02:51:43.178Z,39.10
2023-01-12T02:54:14.456Z,77.70
2023-01-12T02:56:49.788Z,129.80
2023-01-12T02:59:32.062Z,94.10
2023-01-12T03:02:06.290Z,167.90
2023-01-12T03:04:34.359Z,116.10
2023-01-12T03:07:02.221Z,59.50
2023-01-12T03:09:39.664Z,50.20
2023-01-12T03:12:13.945Z,37.00
2023-01-12T03:14:47.948Z,49.70
2023-01-12T03:17:28.125Z,62.30
2023-01-12T03:20:01.525Z,57.70
2023-01-12T03:22:36.255Z,105.60
2023-01-12T03:25:10.360Z,48.40
2023-01-12T03:27:42.819Z,44.60
2023-01-12T03:30:17.061Z,30.80
2023-01-12T03:32:45.384Z,39.80
2023-01-12T03:35:14.001Z,39.20
2023-01-12T03:37:55.331Z,41.50
2023-01-12T03:40:35.945Z,119.30
2023-01-12T03:43:13.549Z,64.00
2023-01-12T03:45:49.051Z,45.30
2023-01-12T03:48:27.719Z,46.50
2023-01-12T03:51:05.260Z,54.90
2023-01-12T03:53:34.370Z,49.80
2023-01-12T03:56:06.269Z,29.20
2023-01-12T03:58:35.276Z,31.40
2023-01-12T04:01:04.729Z,43.20
2023-01-12T04:03:32.839Z,36.10
2023-01-12T04:06:00.892Z,37.30
2023-01-12T04:08:28.831Z,30.50
2023-01-12T04:10:56.653Z,38.50
2023-01-12T04:13:24.592Z,27.80
2023-01-12T04:15:52.383Z,16.70
2023-01-12T04:18:20.253Z,15.10
2023-01-12T04:20:48.085Z,17.30
2023-01-12T04:23:15.963Z,18.30
2023-01-12T04:25:43.833Z,16.70
2023-01-12T04:28:11.637Z,20.90
2023-01-12T04:30:39.415Z,30.80
2023-01-12T04:33:09.298Z,19.50
2023-01-12T04:35:37.101Z,15.00
2023-01-12T04:38:06.720Z,48.70
2023-01-12T04:40:34.612Z,35.00
2023-01-12T04:43:07.355Z,38.60
2023-01-12T04:45:40.899Z,25.10
2023-01-12T04:48:12.392Z,21.60
2023-01-12T04:50:41.503Z,17.80
2023-01-12T04:53:11.495Z,12.50
2023-01-12T04:55:42.252Z,12.30
2023-01-12T04:58:10.848Z,10.50
2023-01-12T05:00:38.740Z,11.70
2023-01-12T05:03:06.552Z,10.20
2023-01-12T05:05:36.122Z,10.10
2023-01-12T05:08:24.516Z,9.80
2023-01-12T05:10:54.915Z,9.20
2023-01-12T05:13:26.040Z,8.80
2023-01-12T05:15:54.125Z,8.10
2023-01-12T05:18:23.201Z,8.60
2023-01-12T05:20:51.087Z,7.70
2023-01-12T05:23:18.985Z,7.90
2023-01-12T05:25:46.793Z,8.00
2023-01-12T05:28:14.578Z,8.40
2023-01-12T05:30:42.468Z,12.50
2023-01-12T05:33:16.491Z,9.20
2023-01-12T05:35:44.559Z,9.00
2023-01-12T05:38:12.872Z,7.90
2023-01-12T05:40:40.833Z,7.90
2023-01-12T05:43:31.568Z,7.70
2023-01-12T05:46:05.282Z,8.60
2023-01-12T05:48:33.685Z,7.50
2023-01-12T05:51:03.657Z,7.50
2023-01-12T05:53:31.823Z,8.80
2023-01-12T05:56:06.918Z,8.50
2023-01-12T05:58:35.127Z,9.20
2023-01-12T06:01:07.738Z,9.90
2023-01-12T06:03:36.771Z,10.00
2023-01-12T06:06:04.829Z,14.20
2023-01-12T06:08:32.752Z,11.80
2023-01-12T06:11:03.782Z,11.80
2023-01-12T06:13:57.888Z,20.80
2023-01-12T06:16:27.777Z,17.50
2023-01-12T06:18:56.622Z,21.40
2023-01-12T06:21:25.560Z,16.40
2023-01-12T06:23:53.385Z,12.80
2023-01-12T06:26:21.138Z,15.90
2023-01-12T06:28:49.023Z,13.60
2023-01-12T06:31:17.100Z,17.50
2023-01-12T06:33:44.992Z,18.30
2023-01-12T06:36:12.919Z,13.50
2023-01-12T06:38:42.813Z,13.20
2023-01-12T06:41:32.863Z,10.20
2023-01-12T06:44:00.763Z,16.10
2023-01-12T06:46:29.221Z,10.00
2023-01-12T06:48:58.593Z,10.80
2023-01-12T06:51:27.053Z,13.10
2023-01-12T06:53:55.111Z,13.80
2023-01-12T06:56:23.246Z,7.80
2023-01-12T06:58:51.064Z,12.20
2023-01-12T07:01:18.946Z,11.50
2023-01-12T07:03:46.847Z,8.60
2023-01-12T07:06:14.775Z,11.20
2023-01-12T07:08:43.459Z,12.80
2023-01-12T07:11:16.855Z,12.60
2023-01-12T07:13:44.644Z,13.00
2023-01-12T07:16:13.033Z,11.20
2023-01-12T07:18:40.878Z,10.40
2023-01-12T07:21:13.653Z,10.90
2023-01-12T07:23:44.180Z,8.30
2023-01-12T07:26:12.437Z,7.70
2023-01-12T07:28:41.116Z,7.90
2023-01-12T07:31:09.370Z,6.70
2023-01-12T07:33:38.636Z,7.70
2023-01-12T07:36:06.923Z,7.40
2023-01-12T07:38:35.071Z,5.90
2023-01-12T07:41:03.959Z,6.30
2023-01-12T07:43:33.787Z,6.80
2023-01-12T07:46:01.828Z,6.60
2023-01-12T07:48:30.871Z,6.50
2023-01-12T07:50:59.487Z,12.40
2023-01-12T07:53:27.269Z,9.20
2023-01-12T07:55:55.078Z,10.50
2023-01-12T07:58:22.928Z,8.10
2023-01-12T08:00:50.878Z,5.80
2023-01-12T08:03:18.911Z,6.10
2023-01-12T08:05:46.771Z,7.20
2023-01-12T08:08:14.643Z,7.10
2023-01-12T08:10:43.751Z,5.90
2023-01-12T08:13:11.793Z,5.20
2023-01-12T08:15:44.166Z,4.90
2023-01-12T08:18:25.485Z,5.30
2023-01-12T08:20:56.929Z,4.40
2023-01-12T08:23:29.984Z,4.10
2023-01-12T08:26:01.333Z,4.40
2023-01-12T08:28:36.908Z,3.60
2023-01-12T08:31:10.074Z,4.90
2023-01-12T08:33:38.673Z,4.70
2023-01-12T08:36:09.653Z,4.70
2023-01-12T08:38:37.839Z,4.00
2023-01-12T08:41:24.991Z,4.80
2023-01-12T08:44:02.093Z,42.20
2023-01-12T08:46:31.428Z,113.40
2023-01-12T08:48:59.577Z,73.80
2023-01-12T08:51:28.181Z,111.70
2023-01-12T08:53:56.565Z,100.00
2023-01-12T08:56:24.474Z,98.60
2023-01-12T08:58:52.386Z,39.70
2023-01-12T09:01:20.833Z,17.60
2023-01-12T09:03:49.406Z,17.70
2023-01-12T09:06:26.254Z,17.20
2023-01-12T09:08:59.931Z,34.00
2023-01-12T09:11:29.570Z,26.60
2023-01-12T09:13:58.826Z,10.90
2023-01-12T09:16:29.557Z,19.10
2023-01-12T09:18:57.895Z,18.60
2023-01-12T09:21:27.781Z,18.50
2023-01-12T09:23:55.978Z,16.70
2023-01-12T09:26:32.044Z,8.80
2023-01-12T09:29:01.568Z,12.90
2023-01-12T09:31:31.353Z,11.10
2023-01-12T09:33:59.765Z,13.90
2023-01-12T09:36:33.683Z,15.10
2023-01-12T09:39:02.204Z,9.50
2023-01-12T09:41:59.718Z,6.00
2023-01-12T09:45:01.534Z,10.70
2023-01-12T09:47:47.637Z,14.20
2023-01-12T09:50:25.342Z,16.60
2023-01-12T09:53:00.064Z,10.10
2023-01-12T09:55:35.068Z,14.00
2023-01-12T09:58:25.974Z,16.30
2023-01-12T10:00:58.500Z,9.80
2023-01-12T10:03:38.446Z,23.00
2023-01-12T10:06:09.004Z,23.70
2023-01-12T10:08:41.316Z,66.40
2023-01-12T10:11:33.558Z,51.80
2023-01-12T10:14:35.921Z,53.50
2023-01-12T10:17:12.647Z,65.20
2023-01-12T10:20:09.452Z,25.60
2023-01-12T10:22:44.823Z,59.50
2023-01-12T10:25:21.946Z,28.80
2023-01-12T10:27:52.260Z,32.40
2023-01-12T10:30:24.888Z,21.00
2023-01-12T10:32:52.814Z,18.80
2023-01-12T10:35:23.222Z,21.90
2023-01-12T10:37:56.488Z,23.60
2023-01-12T10:40:27.207Z,18.30
2023-01-12T10:43:20.562Z,26.40
2023-01-12T10:45:54.758Z,26.70
2023-01-12T10:48:23.577Z,24.20
2023-01-12T10:51:03.878Z,12.30
2023-01-12T10:53:44.057Z,14.10
2023-01-12T10:56:20.792Z,21.40
2023-01-12T10:58:54.931Z,16.30
2023-01-12T11:01:23.778Z,20.80
2023-01-12T11:03:52.103Z,23.00
2023-01-12T11:06:28.552Z,16.40
2023-01-12T11:08:57.264Z,14.50
2023-01-12T11:11:30.976Z,34.90
2023-01-12T11:14:01.514Z,16.30
2023-01-12T11:16:34.026Z,8.90
2023-01-12T11:19:18.804Z,14.00
2023-01-12T11:21:56.252Z,17.70
2023-01-12T11:24:42.044Z,15.90
2023-01-12T11:30:00.555Z,16.40
2023-01-12T11:32:47.962Z,9.90
2023-01-12T11:35:40.697Z,16.60
2023-01-12T11:38:17.302Z,13.20
2023-01-12T11:40:45.942Z,22.80
2023-01-12T11:43:55.708Z,16.40
2023-01-12T11:46:54.240Z,12.10
2023-01-12T11:49:41.907Z,17.20
2023-01-12T11:52:11.597Z,20.90
2023-01-12T11:54:40.496Z,19.60
2023-01-12T11:57:27.025Z,15.80
2023-01-12T11:59:54.835Z,19.30
2023-01-12T12:02:38.467Z,20.50
2023-01-12T12:05:42.245Z,19.90
2023-01-12T12:08:43.747Z,26.10
2023-01-12T12:11:32.997Z,19.50
2023-01-12T12:14:23.860Z,123.40
2023-01-12T12:17:19.240Z,89.90
2023-01-12T12:22:59.812Z,31.80
2023-01-12T12:25:44.826Z,42.80
2023-01-12T12:28:33.871Z,42.60
2023-01-12T12:31:39.699Z,76.10
2023-01-12T12:34:31.479Z,88.80
2023-01-12T12:37:14.437Z,63.30
2023-01-12T12:39:42.230Z,52.10
2023-01-12T12:43:13.893Z,42.50
2023-01-12T12:45:50.498Z,22.40
2023-01-12T12:48:27.728Z,41.80
2023-01-12T12:51:03.364Z,47.50
2023-01-12T12:53:51.381Z,38.80
2023-01-12T12:56:22.483Z,35.30
2023-01-12T12:58:55.883Z,62.00
2023-01-12T13:01:29.554Z,72.40
2023-01-12T13:03:58.778Z,40.50
2023-01-12T13:06:36.034Z,22.10
2023-01-12T13:09:12.801Z,28.30
2023-01-12T13:11:54.249Z,39.40
2023-01-12T13:14:33.994Z,63.30
2023-01-12T13:17:01.769Z,96.30
2023-01-12T13:19:42.435Z,56.40
2023-01-12T13:22:28.955Z,59.00
2023-01-12T13:24:58.519Z,23.10
2023-01-12T13:28:05.795Z,36.00
2023-01-12T13:30:35.041Z,78.00
2023-01-12T13:33:14.923Z,22.90
2023-01-12T13:35:49.498Z,11.40
2023-01-12T13:38:49.222Z,16.30
2023-01-12T13:41:46.538Z,12.90
2023-01-12T13:44:24.504Z,23.30
2023-01-12T13:47:00.200Z,15.60
2023-01-12T13:49:30.124Z,17.00
2023-01-12T13:52:04.434Z,29.80
2023-01-12T13:54:33.901Z,23.80
2023-01-12T13:57:06.422Z,20.30
2023-01-12T13:59:35.278Z,14.00
2023-01-12T14:02:04.024Z,15.90
2023-01-12T14:04:38.587Z,22.50
2023-01-12T14:07:28.164Z,24.80
2023-01-12T14:10:25.109Z,75.60
2023-01-12T14:13:22.979Z,35.00
2023-01-12T14:16:19.329Z,24.90
2023-01-12T14:18:49.585Z,32.90
2023-01-12T14:21:37.650Z,25.60
2023-01-12T14:24:15.935Z,26.20
2023-01-12T14:26:44.124Z,25.00
2023-01-12T14:29:13.020Z,22.00
2023-01-12T14:31:48.647Z,15.80
2023-01-12T14:34:37.431Z,25.50
2023-01-12T14:37:19.258Z,27.90
2023-01-12T14:39:47.620Z,33.90
2023-01-12T14:42:38.459Z,36.90
2023-01-12T14:45:42.194Z,27.30
2023-01-12T14:48:20.323Z,19.30
2023-01-12T14:51:10.051Z,26.80
2023-01-12T14:53:42.774Z,12.20
2023-01-12T14:56:22.634Z,21.50
2023-01-12T14:58:50.916Z,30.30
2023-01-12T15:01:37.285Z,45.20
2023-01-12T15:04:13.330Z,30.40
2023-01-12T15:09:44.582Z,24.50
2023-01-12T15:12:26.216Z,23.40
2023-01-12T15:14:54.189Z,22.20
2023-01-12T15:17:40.517Z,28.00
2023-01-12T15:20:31.547Z,19.70
2023-01-12T15:23:18.011Z,13.90
2023-01-12T15:25:45.850Z,24.90
2023-01-12T15:28:13.702Z,28.40
2023-01-12T15:30:41.584Z,21.80
2023-01-12T15:33:09.482Z,26.20
2023-01-12T15:35:43.501Z,38.60
2023-01-12T15:38:18.963Z,44.80
2023-01-12T15:40:48.135Z,21.70
2023-01-12T15:43:17.685Z,28.70
2023-01-12T15:45:47.506Z,33.00
2023-01-12T15:48:15.380Z,20.40
2023-01-12T15:50:45.629Z,34.30
2023-01-12T15:53:16.418Z,38.90
2023-01-12T15:55:44.739Z,43.60
2023-01-12T15:58:12.826Z,19.80
2023-01-12T16:00:43.012Z,28.30
2023-01-12T16:03:28.908Z,17.10
2023-01-12T16:06:00.830Z,19.10
2023-01-12T16:08:28.670Z,27.90
2023-01-12T16:11:13.688Z,18.40
2023-01-12T16:13:41.688Z,23.70
2023-01-12T16:16:15.985Z,19.90
2023-01-12T16:18:44.861Z,23.30
2023-01-12T16:21:16.116Z,23.50
2023-01-12T16:23:44.033Z,36.70
2023-01-12T16:26:12.458Z,21.50
2023-01-12T16:28:40.364Z,25.40
2023-01-12T16:31:10.926Z,57.90
2023-01-12T16:33:40.641Z,35.10
2023-01-12T16:36:09.693Z,30.60
2023-01-12T16:38:37.849Z,30.50
2023-01-12T16:41:19.942Z,29.50
2023-01-12T16:43:48.935Z,39.60
2023-01-12T16:46:17.497Z,25.70
2023-01-12T16:48:45.671Z,31.20
2023-01-12T16:51:18.597Z,33.10
2023-01-12T16:53:47.437Z,23.90
2023-01-12T16:56:16.629Z,35.60
2023-01-12T16:58:53.309Z,34.50
2023-01-12T17:01:24.824Z,45.80
2023-01-12T17:03:57.922Z,20.80
2023-01-12T17:06:28.669Z,35.70
2023-01-12T17:08:56.814Z,22.10
2023-01-12T17:11:26.065Z,19.30
2023-01-12T17:13:56.317Z,21.10
2023-01-12T17:16:27.404Z,20.30
2023-01-12T17:18:55.331Z,31.30
2023-01-12T17:21:24.534Z,24.00
2023-01-12T17:23:53.039Z,30.10
2023-01-12T17:26:20.894Z,21.40
2023-01-12T17:28:48.887Z,36.90
2023-01-12T17:31:18.770Z,37.70
2023-01-12T17:33:46.984Z,59.70
2023-01-12T17:36:14.909Z,49.80
2023-01-12T17:38:42.991Z,31.70
2023-01-12T17:41:32.676Z,78.90
2023-01-12T17:44:03.400Z,50.50
2023-01-12T17:46:32.574Z,50.00
2023-01-12T17:49:02.203Z,152.30
2023-01-12T17:51:30.393Z,357.90
2023-01-12T17:53:59.891Z,348.50
2023-01-12T17:56:31.581Z,340.80
2023-01-12T17:59:00.181Z,256.20
2023-01-12T18:01:31.298Z,497.50
2023-01-12T18:04:00.499Z,193.30
2023-01-12T18:06:28.819Z,137.30
2023-01-12T18:08:59.616Z,188.30
2023-01-12T18:11:29.069Z,163.20
2023-01-12T18:13:58.033Z,343.70
2023-01-12T18:16:27.120Z,140.00
2023-01-12T18:18:55.384Z,154.50
2023-01-12T18:21:26.109Z,89.40
2023-01-12T18:23:56.324Z,97.00
2023-01-12T18:26:27.867Z,132.00
2023-01-12T18:28:57.255Z,112.90
2023-01-12T18:31:28.803Z,138.20
2023-01-12T18:34:10.772Z,135.90
2023-01-12T18:36:41.412Z,86.80
2023-01-12T18:39:14.163Z,54.70
2023-01-12T18:42:00.743Z,47.30
2023-01-12T18:44:28.760Z,27.30
2023-01-12T18:47:16.857Z,45.90
2023-01-12T18:49:49.040Z,40.00
2023-01-12T18:52:37.134Z,25.70
2023-01-12T18:55:05.812Z,25.70
2023-01-12T18:57:34.765Z,26.20
2023-01-12T19:00:16.209Z,58.60
2023-01-12T19:02:45.087Z,28.30
2023-01-12T19:05:18.284Z,24.30
2023-01-12T19:07:58.535Z,13.70
2023-01-12T19:10:28.477Z,12.70
2023-01-12T19:13:16.120Z,11.50
2023-01-12T19:16:02.848Z,13.70
2023-01-12T19:18:30.809Z,12.60
2023-01-12T19:21:21.475Z,14.40
2023-01-12T19:24:08.200Z,12.70
2023-01-12T19:26:54.975Z,14.80
2023-01-12T19:29:22.782Z,21.70
2023-01-12T19:31:50.572Z,17.10
2023-01-12T19:34:18.899Z,18.20
2023-01-12T19:36:46.867Z,31.80
2023-01-12T19:39:15.473Z,16.40
2023-01-12T19:42:01.912Z,24.40
2023-01-12T19:44:29.995Z,45.90
2023-01-12T19:46:57.758Z,127.50
2023-01-12T19:49:25.781Z,80.00
2023-01-12T19:51:53.742Z,78.70
2023-01-12T19:54:21.565Z,73.50
2023-01-12T19:56:49.494Z,85.60
2023-01-12T19:59:17.364Z,74.80
2023-01-12T20:01:45.420Z,30.30
2023-01-12T20:04:13.435Z,26.00
2023-01-12T20:06:41.460Z,33.90
2023-01-12T20:09:09.313Z,26.30
2023-01-12T20:11:37.135Z,57.70
2023-01-12T20:14:05.318Z,30.30
2023-01-12T20:16:33.651Z,38.30
2023-01-12T20:19:03.938Z,76.00
2023-01-12T20:21:31.695Z,45.00
2023-01-12T20:23:59.635Z,30.10
2023-01-12T20:26:27.782Z,34.80
2023-01-12T20:28:55.590Z,29.40
2023-01-12T20:31:23.535Z,36.50
2023-01-12T20:33:51.471Z,22.70
2023-01-12T20:36:19.422Z,35.70
2023-01-12T20:38:47.698Z,28.20
2023-01-12T20:41:15.563Z,29.10
2023-01-12T20:43:43.480Z,29.20
2023-01-12T20:46:14.124Z,44.00
2023-01-12T20:48:42.928Z,38.10
2023-01-12T20:51:14.415Z,62.40
2023-01-12T20:53:42.972Z,43.80
2023-01-12T20:56:11.026Z,26.40
2023-01-12T20:58:38.846Z,29.20
2023-01-12T21:01:12.277Z,24.40
2023-01-12T21:03:40.294Z,17.30
2023-01-12T21:06:10.608Z,12.60
2023-01-12T21:08:39.375Z,15.00
2023-01-12T21:11:07.216Z,17.40
2023-01-12T21:13:35.167Z,20.60
2023-01-12T21:16:06.967Z,14.10
2023-01-12T21:18:35.052Z,14.00
2023-01-12T21:21:03.033Z,18.50
2023-01-12T21:23:30.953Z,20.20
2023-01-12T21:25:59.512Z,18.70
2023-01-12T21:28:30.182Z,22.00
2023-01-12T21:31:03.207Z,9.10
2023-01-12T21:33:31.165Z,13.10
2023-01-12T21:35:59.914Z,12.40
2023-01-12T21:38:27.755Z,13.50
2023-01-12T21:41:01.424Z,12.00
2023-01-12T21:43:29.412Z,20.10
2023-01-12T21:46:04.763Z,12.40
2023-01-12T21:48:32.813Z,11.30
2023-01-12T21:51:02.562Z,10.60
2023-01-12T21:53:30.450Z,11.60
2023-01-12T21:56:01.355Z,18.20
2023-01-12T21:58:31.302Z,7.30
2023-01-12T22:00:59.896Z,8.80
2023-01-12T22:03:29.080Z,16.20
2023-01-12T22:06:05.130Z,18.30
2023-01-12T22:11:10.381Z,21.10
2023-01-12T22:13:38.815Z,18.80
2023-01-12T22:16:09.688Z,11.70
2023-01-12T22:18:39.085Z,11.90
2023-01-12T22:21:09.431Z,17.80
2023-01-12T22:23:37.772Z,17.40
2023-01-12T22:26:08.963Z,12.50
2023-01-12T22:28:39.692Z,9.30
2023-01-12T22:31:12.230Z,10.10
2023-01-12T22:33:43.284Z,10.50
2023-01-12T22:36:11.223Z,10.20
2023-01-12T22:38:39.161Z,11.50
2023-01-12T22:41:08.573Z,18.80
2023-01-12T22:43:42.916Z,10.20
2023-01-12T22:46:20.369Z,7.60
2023-01-12T22:48:53.736Z,8.60
2023-01-12T22:51:24.960Z,11.00
2023-01-12T22:53:54.028Z,11.60
2023-01-12T22:56:21.899Z,10.70
2023-01-12T22:58:52.904Z,9.50
2023-01-12T23:01:22.751Z,10.20
2023-01-12T23:03:58.661Z,8.40
2023-01-12T23:06:27.248Z,7.10
2023-01-12T23:08:55.427Z,7.80
2023-01-12T23:11:26.460Z,7.20
2023-01-12T23:13:55.078Z,25.40
2023-01-12T23:16:23.471Z,22.20
2023-01-12T23:18:52.024Z,20.30
2023-01-12T23:21:26.454Z,6.40
2023-01-12T23:23:59.797Z,13.40
2023-01-12T23:26:31.404Z,9.40
2023-01-12T23:29:01.178Z,14.10
2023-01-12T23:31:32.349Z,10.20
2023-01-12T23:34:01.386Z,6.50
2023-01-12T23:36:30.259Z,5.80
2023-01-12T23:39:00.987Z,6.00
2023-01-12T23:41:31.071Z,7.60
2023-01-12T23:44:00.716Z,6.60
2023-01-12T23:46:31.195Z,6.80
2023-01-12T23:48:59.395Z,6.70
2023-01-12T23:51:29.434Z,4.50
2023-01-12T23:54:00.132Z,6.20
2023-01-12T23:56:30.491Z,8.00
2023-01-12T23:58:58.439Z,5.80
